sensor_id;sensor_type;location;lat;lon;timestamp;pressure;altitude;pressure_sealevel;temperature;humidity
75543;BME280;64129;53.508;10.476;2023-04-25T00:01:35;99933.34;;;7.83;83.25
75543;BME280;64129;53.508;10.476;2023-04-25T00:04:04;99939.53;;;7.82;83.12
75543;BME280;64129;53.508;10.476;2023-04-25T00:06:34;99934.94;;;7.91;82.47
75543;BME280;64129;53.508;10.476;2023-04-25T00:09:03;99942.91;;;7.89;83.27
75543;BME280;64129;53.508;10.476;2023-04-25T00:11:29;99943.69;;;7.93;82.69
75543;BME280;64129;53.508;10.476;2023-04-25T00:13:57;99942.72;;;7.95;83.18
75543;BME280;64129;53.508;10.476;2023-04-25T00:16:23;99948.09;;;7.92;83.81
75543;BME280;64129;53.508;10.476;2023-04-25T00:18:50;99954.22;;;7.94;83.46
75543;BME280;64129;53.508;10.476;2023-04-25T00:21:20;99942.66;;;8.00;83.35
75543;BME280;64129;53.508;10.476;2023-04-25T00:23:47;99941.59;;;8.05;83.58
75543;BME280;64129;53.508;10.476;2023-04-25T00:26:13;99945.75;;;7.81;84.63
75543;BME280;64129;53.508;10.476;2023-04-25T00:28:40;99941.81;;;7.96;84.40
75543;BME280;64129;53.508;10.476;2023-04-25T00:31:07;99947.06;;;7.98;84.27
75543;BME280;64129;53.508;10.476;2023-04-25T00:33:33;99945.28;;;8.00;84.21
75543;BME280;64129;53.508;10.476;2023-04-25T00:36:00;99945.66;;;7.85;84.62
75543;BME280;64129;53.508;10.476;2023-04-25T00:38:27;99950.63;;;7.97;84.84
75543;BME280;64129;53.508;10.476;2023-04-25T00:40:53;99955.91;;;7.97;84.52
75543;BME280;64129;53.508;10.476;2023-04-25T00:43:21;99961.56;;;7.83;85.28
75543;BME280;64129;53.508;10.476;2023-04-25T00:45:48;99957.38;;;7.74;86.55
75543;BME280;64129;53.508;10.476;2023-04-25T00:48:17;99952.59;;;7.89;85.49
75543;BME280;64129;53.508;10.476;2023-04-25T00:50:51;99959.31;;;7.68;85.86
75543;BME280;64129;53.508;10.476;2023-04-25T00:53:17;99961.75;;;7.75;85.54
75543;BME280;64129;53.508;10.476;2023-04-25T00:55:44;99955.75;;;7.69;85.46
75543;BME280;64129;53.508;10.476;2023-04-25T00:58:11;99973.28;;;7.73;85.02
75543;BME280;64129;53.508;10.476;2023-04-25T01:00:39;99977.00;;;7.64;85.54
75543;BME280;64129;53.508;10.476;2023-04-25T01:03:07;99981.09;;;7.77;84.89
75543;BME280;64129;53.508;10.476;2023-04-25T01:05:33;99978.84;;;7.61;85.88
75543;BME280;64129;53.508;10.476;2023-04-25T01:08:00;99970.88;;;7.64;84.86
75543;BME280;64129;53.508;10.476;2023-04-25T01:10:27;99972.38;;;7.74;84.32
75543;BME280;64129;53.508;10.476;2023-04-25T01:12:53;99982.91;;;7.75;84.79
75543;BME280;64129;53.508;10.476;2023-04-25T01:15:20;99972.38;;;7.74;85.61
75543;BME280;64129;53.508;10.476;2023-04-25T01:17:47;99971.34;;;7.79;84.35
75543;BME280;64129;53.508;10.476;2023-04-25T01:20:15;99968.03;;;7.71;84.18
75543;BME280;64129;53.508;10.476;2023-04-25T01:22:43;99974.50;;;7.94;84.34
75543;BME280;64129;53.508;10.476;2023-04-25T01:25:10;99972.53;;;7.68;84.36
75543;BME280;64129;53.508;10.476;2023-04-25T01:27:37;99965.88;;;7.50;85.80
75543;BME280;64129;53.508;10.476;2023-04-25T01:30:05;99973.63;;;7.58;84.06
75543;BME280;64129;53.508;10.476;2023-04-25T01:32:33;99964.94;;;7.53;83.07
75543;BME280;64129;53.508;10.476;2023-04-25T01:35:08;99969.44;;;7.49;84.36
75543;BME280;64129;53.508;10.476;2023-04-25T01:37:40;99982.59;;;7.50;84.16
75543;BME280;64129;53.508;10.476;2023-04-25T01:40:08;99981.09;;;7.40;83.25
75543;BME280;64129;53.508;10.476;2023-04-25T01:42:37;99980.00;;;7.49;83.50
75543;BME280;64129;53.508;10.476;2023-04-25T01:45:05;99983.25;;;7.60;82.80
75543;BME280;64129;53.508;10.476;2023-04-25T01:47:33;99988.84;;;7.48;81.89
75543;BME280;64129;53.508;10.476;2023-04-25T01:50:04;99985.84;;;7.25;81.46
75543;BME280;64129;53.508;10.476;2023-04-25T01:52:32;99985.72;;;7.31;82.12
75543;BME280;64129;53.508;10.476;2023-04-25T01:55:02;100001.69;;;7.25;81.42
75543;BME280;64129;53.508;10.476;2023-04-25T01:57:31;99996.28;;;7.31;81.82
75543;BME280;64129;53.508;10.476;2023-04-25T02:00:01;99998.28;;;7.19;81.06
75543;BME280;64129;53.508;10.476;2023-04-25T02:02:38;100001.59;;;7.28;81.13
75543;BME280;64129;53.508;10.476;2023-04-25T02:05:12;100003.75;;;7.10;80.09
75543;BME280;64129;53.508;10.476;2023-04-25T02:07:41;100016.50;;;7.32;80.08
75543;BME280;64129;53.508;10.476;2023-04-25T02:10:08;100015.72;;;7.27;80.50
75543;BME280;64129;53.508;10.476;2023-04-25T02:12:41;100017.44;;;7.28;79.85
75543;BME280;64129;53.508;10.476;2023-04-25T02:15:20;100019.31;;;7.23;79.13
75543;BME280;64129;53.508;10.476;2023-04-25T02:17:50;100018.19;;;7.36;79.53
75543;BME280;64129;53.508;10.476;2023-04-25T02:20:20;100020.16;;;7.25;78.77
75543;BME280;64129;53.508;10.476;2023-04-25T02:22:47;100025.72;;;7.12;78.31
75543;BME280;64129;53.508;10.476;2023-04-25T02:25:14;100021.53;;;7.02;78.25
75543;BME280;64129;53.508;10.476;2023-04-25T02:27:42;100024.13;;;7.05;78.55
75543;BME280;64129;53.508;10.476;2023-04-25T02:30:09;100021.66;;;6.96;77.14
75543;BME280;64129;53.508;10.476;2023-04-25T02:32:36;100028.38;;;7.11;77.17
75543;BME280;64129;53.508;10.476;2023-04-25T02:35:03;100030.22;;;7.07;76.20
75543;BME280;64129;53.508;10.476;2023-04-25T02:37:33;100027.63;;;7.06;76.58
75543;BME280;64129;53.508;10.476;2023-04-25T02:40:01;100024.03;;;7.08;76.28
75543;BME280;64129;53.508;10.476;2023-04-25T02:42:27;100037.28;;;7.07;75.84
75543;BME280;64129;53.508;10.476;2023-04-25T02:44:56;100031.34;;;6.96;75.12
75543;BME280;64129;53.508;10.476;2023-04-25T02:47:23;100042.34;;;6.74;75.33
75543;BME280;64129;53.508;10.476;2023-04-25T02:49:49;100037.59;;;6.90;74.07
75543;BME280;64129;53.508;10.476;2023-04-25T02:52:16;100038.50;;;6.89;74.33
75543;BME280;64129;53.508;10.476;2023-04-25T02:54:45;100040.28;;;6.88;74.03
75543;BME280;64129;53.508;10.476;2023-04-25T02:57:11;100040.34;;;6.85;74.19
75543;BME280;64129;53.508;10.476;2023-04-25T02:59:38;100035.34;;;6.72;72.64
75543;BME280;64129;53.508;10.476;2023-04-25T03:02:04;100044.09;;;6.74;73.87
75543;BME280;64129;53.508;10.476;2023-04-25T03:04:31;100037.84;;;6.78;73.31
75543;BME280;64129;53.508;10.476;2023-04-25T03:06:57;100037.72;;;6.84;74.20
75543;BME280;64129;53.508;10.476;2023-04-25T03:09:24;100044.88;;;6.79;73.80
75543;BME280;64129;53.508;10.476;2023-04-25T03:11:51;100043.00;;;6.84;74.14
75543;BME280;64129;53.508;10.476;2023-04-25T03:14:18;100039.66;;;6.76;72.92
75543;BME280;64129;53.508;10.476;2023-04-25T03:16:44;100046.13;;;6.60;72.61
75543;BME280;64129;53.508;10.476;2023-04-25T03:19:11;100049.59;;;6.63;73.72
75543;BME280;64129;53.508;10.476;2023-04-25T03:21:38;100046.91;;;6.65;73.79
75543;BME280;64129;53.508;10.476;2023-04-25T03:24:04;100046.72;;;6.75;73.71
75543;BME280;64129;53.508;10.476;2023-04-25T03:26:31;100049.44;;;6.71;73.43
75543;BME280;64129;53.508;10.476;2023-04-25T03:28:58;100061.09;;;6.57;72.86
75543;BME280;64129;53.508;10.476;2023-04-25T03:31:26;100052.06;;;6.71;73.05
75543;BME280;64129;53.508;10.476;2023-04-25T03:33:52;100062.69;;;6.68;73.29
75543;BME280;64129;53.508;10.476;2023-04-25T03:36:21;100063.41;;;6.76;74.57
75543;BME280;64129;53.508;10.476;2023-04-25T03:38:47;100065.63;;;6.51;74.42
75543;BME280;64129;53.508;10.476;2023-04-25T03:41:15;100067.47;;;6.46;72.67
75543;BME280;64129;53.508;10.476;2023-04-25T03:43:49;100078.00;;;6.47;72.49
75543;BME280;64129;53.508;10.476;2023-04-25T03:46:16;100081.41;;;6.52;73.11
75543;BME280;64129;53.508;10.476;2023-04-25T03:48:42;100075.19;;;6.56;73.27
75543;BME280;64129;53.508;10.476;2023-04-25T03:51:14;100076.13;;;6.54;72.88
75543;BME280;64129;53.508;10.476;2023-04-25T03:53:42;100076.41;;;6.39;72.33
75543;BME280;64129;53.508;10.476;2023-04-25T03:56:15;100076.44;;;6.37;72.71
75543;BME280;64129;53.508;10.476;2023-04-25T03:58:44;100079.34;;;6.19;70.87
75543;BME280;64129;53.508;10.476;2023-04-25T04:01:11;100080.34;;;6.12;71.00
75543;BME280;64129;53.508;10.476;2023-04-25T04:03:39;100087.19;;;6.23;71.31
75543;BME280;64129;53.508;10.476;2023-04-25T04:06:07;100095.97;;;6.25;70.75
75543;BME280;64129;53.508;10.476;2023-04-25T04:08:39;100099.59;;;6.17;71.07
75543;BME280;64129;53.508;10.476;2023-04-25T04:11:06;100096.84;;;6.26;71.15
75543;BME280;64129;53.508;10.476;2023-04-25T04:13:32;100099.69;;;6.11;70.58
75543;BME280;64129;53.508;10.476;2023-04-25T04:16:00;100108.50;;;6.10;70.58
75543;BME280;64129;53.508;10.476;2023-04-25T04:18:27;100104.09;;;6.12;70.59
75543;BME280;64129;53.508;10.476;2023-04-25T04:20:55;100107.75;;;6.02;70.96
75543;BME280;64129;53.508;10.476;2023-04-25T04:23:24;100114.72;;;6.06;69.93
75543;BME280;64129;53.508;10.476;2023-04-25T04:25:54;100119.28;;;5.96;68.97
75543;BME280;64129;53.508;10.476;2023-04-25T04:28:38;100117.38;;;6.04;68.72
75543;BME280;64129;53.508;10.476;2023-04-25T04:31:12;100119.38;;;5.85;69.19
75543;BME280;64129;53.508;10.476;2023-04-25T04:33:39;100123.56;;;6.02;69.96
75543;BME280;64129;53.508;10.476;2023-04-25T04:36:07;100126.25;;;5.99;69.38
75543;BME280;64129;53.508;10.476;2023-04-25T04:38:33;100130.50;;;6.09;68.73
75543;BME280;64129;53.508;10.476;2023-04-25T04:41:02;100135.81;;;6.06;68.68
75543;BME280;64129;53.508;10.476;2023-04-25T04:43:44;100129.00;;;5.89;67.99
75543;BME280;64129;53.508;10.476;2023-04-25T04:46:43;100127.16;;;5.98;69.09
75543;BME280;64129;53.508;10.476;2023-04-25T04:49:20;100136.91;;;5.89;67.41
75543;BME280;64129;53.508;10.476;2023-04-25T04:52:19;100138.75;;;5.83;68.20
75543;BME280;64129;53.508;10.476;2023-04-25T04:54:52;100149.34;;;5.78;67.27
75543;BME280;64129;53.508;10.476;2023-04-25T04:57:34;100144.91;;;5.80;66.41
75543;BME280;64129;53.508;10.476;2023-04-25T05:00:27;100162.44;;;5.83;67.45
75543;BME280;64129;53.508;10.476;2023-04-25T05:03:11;100164.13;;;5.88;67.40
75543;BME280;64129;53.508;10.476;2023-04-25T05:05:58;100160.63;;;5.92;67.71
75543;BME280;64129;53.508;10.476;2023-04-25T05:08:30;100161.25;;;6.08;67.63
75543;BME280;64129;53.508;10.476;2023-04-25T05:11:15;100163.13;;;6.02;67.88
75543;BME280;64129;53.508;10.476;2023-04-25T05:13:57;100163.81;;;6.13;68.83
75543;BME280;64129;53.508;10.476;2023-04-25T05:16:43;100155.09;;;6.08;68.43
75543;BME280;64129;53.508;10.476;2023-04-25T05:22:16;100163.66;;;6.22;69.08
75543;BME280;64129;53.508;10.476;2023-04-25T05:25:12;100160.06;;;6.29;69.11
75543;BME280;64129;53.508;10.476;2023-04-25T05:27:59;100154.13;;;6.15;68.14
75543;BME280;64129;53.508;10.476;2023-04-25T05:30:37;100162.06;;;6.13;68.15
75543;BME280;64129;53.508;10.476;2023-04-25T05:33:08;100168.78;;;6.86;65.97
75543;BME280;64129;53.508;10.476;2023-04-25T05:35:35;100172.09;;;6.45;67.13
75543;BME280;64129;53.508;10.476;2023-04-25T05:38:02;100167.75;;;6.43;66.75
75543;BME280;64129;53.508;10.476;2023-04-25T05:40:54;100170.47;;;6.38;66.91
75543;BME280;64129;53.508;10.476;2023-04-25T05:43:42;100181.66;;;6.52;66.91
75543;BME280;64129;53.508;10.476;2023-04-25T05:46:21;100173.84;;;6.46;66.36
75543;BME280;64129;53.508;10.476;2023-04-25T05:49:11;100180.25;;;6.32;65.27
75543;BME280;64129;53.508;10.476;2023-04-25T05:52:00;100186.44;;;6.29;65.27
75543;BME280;64129;53.508;10.476;2023-04-25T05:54:27;100188.50;;;6.07;63.76
75543;BME280;64129;53.508;10.476;2023-04-25T05:56:56;100203.25;;;6.20;65.41
75543;BME280;64129;53.508;10.476;2023-04-25T05:59:23;100193.56;;;6.21;65.98
75543;BME280;64129;53.508;10.476;2023-04-25T06:01:49;100202.25;;;6.29;66.65
75543;BME280;64129;53.508;10.476;2023-04-25T06:04:16;100208.34;;;6.34;66.96
75543;BME280;64129;53.508;10.476;2023-04-25T06:06:43;100204.91;;;6.29;66.58
75543;BME280;64129;53.508;10.476;2023-04-25T06:09:09;100212.81;;;6.29;66.22
75543;BME280;64129;53.508;10.476;2023-04-25T06:11:36;100209.19;;;6.36;66.52
75543;BME280;64129;53.508;10.476;2023-04-25T06:14:03;100219.72;;;6.36;66.02
75543;BME280;64129;53.508;10.476;2023-04-25T06:16:31;100202.13;;;6.38;65.96
75543;BME280;64129;53.508;10.476;2023-04-25T06:18:58;100212.41;;;6.53;66.15
75543;BME280;64129;53.508;10.476;2023-04-25T06:21:25;100215.44;;;6.31;66.57
75543;BME280;64129;53.508;10.476;2023-04-25T06:23:52;100219.59;;;6.45;66.93
75543;BME280;64129;53.508;10.476;2023-04-25T06:26:21;100222.69;;;6.72;66.59
75543;BME280;64129;53.508;10.476;2023-04-25T06:28:48;100223.06;;;6.47;66.67
75543;BME280;64129;53.508;10.476;2023-04-25T06:31:15;100222.00;;;6.59;67.24
75543;BME280;64129;53.508;10.476;2023-04-25T06:33:43;100233.66;;;6.46;68.50
75543;BME280;64129;53.508;10.476;2023-04-25T06:36:09;100228.34;;;6.47;70.57
75543;BME280;64129;53.508;10.476;2023-04-25T06:38:37;100215.69;;;6.71;71.46
75543;BME280;64129;53.508;10.476;2023-04-25T06:41:04;100217.63;;;6.60;71.05
75543;BME280;64129;53.508;10.476;2023-04-25T06:43:34;100210.41;;;6.69;70.99
75543;BME280;64129;53.508;10.476;2023-04-25T06:46:09;100221.78;;;6.73;69.76
75543;BME280;64129;53.508;10.476;2023-04-25T06:48:42;100217.19;;;6.84;69.48
75543;BME280;64129;53.508;10.476;2023-04-25T06:51:08;100219.00;;;6.82;70.44
75543;BME280;64129;53.508;10.476;2023-04-25T06:53:36;100221.59;;;6.83;70.83
75543;BME280;64129;53.508;10.476;2023-04-25T06:56:06;100225.09;;;6.85;69.60
75543;BME280;64129;53.508;10.476;2023-04-25T06:58:52;100222.31;;;6.93;68.36
75543;BME280;64129;53.508;10.476;2023-04-25T07:01:39;100231.19;;;6.89;69.00
75543;BME280;64129;53.508;10.476;2023-04-25T07:04:19;100230.78;;;7.13;68.77
75543;BME280;64129;53.508;10.476;2023-04-25T07:06:50;100228.66;;;7.34;69.12
75543;BME280;64129;53.508;10.476;2023-04-25T07:09:21;100234.19;;;7.18;68.36
75543;BME280;64129;53.508;10.476;2023-04-25T07:11:49;100230.88;;;7.07;68.28
75543;BME280;64129;53.508;10.476;2023-04-25T07:14:15;100235.81;;;7.26;67.65
75543;BME280;64129;53.508;10.476;2023-04-25T07:16:42;100244.56;;;7.31;68.94
75543;BME280;64129;53.508;10.476;2023-04-25T07:19:09;100250.50;;;7.42;67.70
75543;BME280;64129;53.508;10.476;2023-04-25T07:21:36;100243.16;;;7.10;66.61
75543;BME280;64129;53.508;10.476;2023-04-25T07:24:04;100253.56;;;7.19;66.88
75543;BME280;64129;53.508;10.476;2023-04-25T07:26:34;100256.22;;;7.17;67.34
75543;BME280;64129;53.508;10.476;2023-04-25T07:29:19;100260.16;;;7.44;67.69
75543;BME280;64129;53.508;10.476;2023-04-25T07:31:46;100243.88;;;7.19;66.29
75543;BME280;64129;53.508;10.476;2023-04-25T07:34:12;100246.69;;;7.10;66.19
75543;BME280;64129;53.508;10.476;2023-04-25T07:36:39;100255.84;;;7.39;67.34
75543;BME280;64129;53.508;10.476;2023-04-25T07:39:06;100254.31;;;7.26;66.65
75543;BME280;64129;53.508;10.476;2023-04-25T07:41:32;100250.47;;;7.43;66.75
75543;BME280;64129;53.508;10.476;2023-04-25T07:43:59;100260.34;;;7.34;67.31
75543;BME280;64129;53.508;10.476;2023-04-25T07:46:26;100256.69;;;7.41;67.54
75543;BME280;64129;53.508;10.476;2023-04-25T07:48:52;100269.31;;;7.24;67.69
75543;BME280;64129;53.508;10.476;2023-04-25T07:51:20;100268.41;;;7.25;66.73
75543;BME280;64129;53.508;10.476;2023-04-25T07:53:50;100266.00;;;7.12;66.98
75543;BME280;64129;53.508;10.476;2023-04-25T07:56:17;100271.22;;;7.15;67.00
75543;BME280;64129;53.508;10.476;2023-04-25T07:58:46;100284.25;;;7.25;65.96
75543;BME280;64129;53.508;10.476;2023-04-25T08:01:15;100300.94;;;7.30;68.85
75543;BME280;64129;53.508;10.476;2023-04-25T08:03:55;100290.13;;;6.89;67.20
75543;BME280;64129;53.508;10.476;2023-04-25T08:06:34;100271.78;;;6.82;68.67
75543;BME280;64129;53.508;10.476;2023-04-25T08:09:07;100287.44;;;6.94;69.13
75543;BME280;64129;53.508;10.476;2023-04-25T08:11:38;100289.47;;;6.77;69.67
75543;BME280;64129;53.508;10.476;2023-04-25T08:14:06;100296.59;;;6.72;70.89
75543;BME280;64129;53.508;10.476;2023-04-25T08:16:33;100290.06;;;6.93;71.00
75543;BME280;64129;53.508;10.476;2023-04-25T08:19:01;100286.38;;;7.06;70.99
75543;BME280;64129;53.508;10.476;2023-04-25T08:21:27;100286.59;;;7.43;71.35
75543;BME280;64129;53.508;10.476;2023-04-25T08:23:57;100285.63;;;7.47;71.02
75543;BME280;64129;53.508;10.476;2023-04-25T08:26:28;100300.66;;;7.45;71.53
75543;BME280;64129;53.508;10.476;2023-04-25T08:28:56;100293.22;;;7.67;70.41
75543;BME280;64129;53.508;10.476;2023-04-25T08:31:22;100304.88;;;8.44;69.17
75543;BME280;64129;53.508;10.476;2023-04-25T08:33:56;100295.28;;;8.39;68.47
75543;BME280;64129;53.508;10.476;2023-04-25T08:36:36;100287.66;;;8.64;67.10
75543;BME280;64129;53.508;10.476;2023-04-25T08:39:12;100298.34;;;8.59;66.11
75543;BME280;64129;53.508;10.476;2023-04-25T08:41:48;100290.88;;;8.39;63.62
75543;BME280;64129;53.508;10.476;2023-04-25T08:44:16;100281.66;;;8.14;64.34
75543;BME280;64129;53.508;10.476;2023-04-25T08:46:46;100294.13;;;8.09;66.97
75543;BME280;64129;53.508;10.476;2023-04-25T08:49:25;100303.72;;;8.13;69.41
75543;BME280;64129;53.508;10.476;2023-04-25T08:51:52;100305.06;;;7.91;68.68
75543;BME280;64129;53.508;10.476;2023-04-25T08:54:23;100320.09;;;7.89;67.50
75543;BME280;64129;53.508;10.476;2023-04-25T08:56:57;100335.22;;;7.80;66.99
75543;BME280;64129;53.508;10.476;2023-04-25T08:59:28;100369.03;;;7.63;69.97
75543;BME280;64129;53.508;10.476;2023-04-25T09:01:55;100361.00;;;7.15;71.73
75543;BME280;64129;53.508;10.476;2023-04-25T09:04:21;100355.16;;;6.97;71.50
75543;BME280;64129;53.508;10.476;2023-04-25T09:06:48;100351.94;;;6.75;70.12
75543;BME280;64129;53.508;10.476;2023-04-25T09:09:15;100343.19;;;7.30;71.83
75543;BME280;64129;53.508;10.476;2023-04-25T09:11:43;100352.84;;;7.32;72.41
75543;BME280;64129;53.508;10.476;2023-04-25T09:14:19;100354.94;;;7.61;71.07
75543;BME280;64129;53.508;10.476;2023-04-25T09:17:12;100347.47;;;7.85;70.23
75543;BME280;64129;53.508;10.476;2023-04-25T09:19:45;100355.44;;;7.83;69.43
75543;BME280;64129;53.508;10.476;2023-04-25T09:22:20;100364.97;;;7.92;69.95
75543;BME280;64129;53.508;10.476;2023-04-25T09:24:48;100369.78;;;7.71;70.69
75543;BME280;64129;53.508;10.476;2023-04-25T09:27:20;100366.88;;;7.83;71.06
75543;BME280;64129;53.508;10.476;2023-04-25T09:29:58;100380.84;;;7.92;71.30
75543;BME280;64129;53.508;10.476;2023-04-25T09:32:38;100393.22;;;7.90;73.03
75543;BME280;64129;53.508;10.476;2023-04-25T09:35:05;100390.53;;;7.42;72.39
75543;BME280;64129;53.508;10.476;2023-04-25T09:37:32;100385.53;;;7.76;72.15
75543;BME280;64129;53.508;10.476;2023-04-25T09:40:05;100383.28;;;8.49;71.67
75543;BME280;64129;53.508;10.476;2023-04-25T09:42:46;100383.72;;;8.70;71.20
75543;BME280;64129;53.508;10.476;2023-04-25T09:45:13;100386.97;;;8.41;69.18
75543;BME280;64129;53.508;10.476;2023-04-25T09:47:43;100383.44;;;8.41;71.79
75543;BME280;64129;53.508;10.476;2023-04-25T09:50:17;100377.41;;;8.34;69.04
75543;BME280;64129;53.508;10.476;2023-04-25T09:53:03;100384.81;;;8.59;69.43
75543;BME280;64129;53.508;10.476;2023-04-25T09:55:39;100386.13;;;8.81;69.84
75543;BME280;64129;53.508;10.476;2023-04-25T09:58:07;100388.94;;;8.73;66.37
75543;BME280;64129;53.508;10.476;2023-04-25T10:00:37;100391.34;;;8.84;66.34
75543;BME280;64129;53.508;10.476;2023-04-25T10:03:17;100389.09;;;9.06;63.43
75543;BME280;64129;53.508;10.476;2023-04-25T10:05:55;100395.28;;;9.78;60.92
75543;BME280;64129;53.508;10.476;2023-04-25T10:08:23;100395.69;;;10.60;63.30
75543;BME280;64129;53.508;10.476;2023-04-25T10:10:51;100396.56;;;10.29;62.56
75543;BME280;64129;53.508;10.476;2023-04-25T10:13:18;100394.75;;;9.63;58.87
75543;BME280;64129;53.508;10.476;2023-04-25T10:15:45;100393.56;;;9.75;62.57
75543;BME280;64129;53.508;10.476;2023-04-25T10:18:12;100407.22;;;9.23;59.95
75543;BME280;64129;53.508;10.476;2023-04-25T10:20:39;100414.53;;;8.73;61.10
75543;BME280;64129;53.508;10.476;2023-04-25T10:23:13;100430.63;;;9.04;63.01
75543;BME280;64129;53.508;10.476;2023-04-25T10:25:41;100432.34;;;8.19;64.10
75543;BME280;64129;53.508;10.476;2023-04-25T10:28:07;100431.88;;;8.44;65.11
75543;BME280;64129;53.508;10.476;2023-04-25T10:30:34;100435.50;;;8.82;65.35
75543;BME280;64129;53.508;10.476;2023-04-25T10:33:00;100433.91;;;8.75;62.13
75543;BME280;64129;53.508;10.476;2023-04-25T10:35:28;100439.44;;;9.04;64.15
75543;BME280;64129;53.508;10.476;2023-04-25T10:38:14;100431.41;;;9.09;61.40
75543;BME280;64129;53.508;10.476;2023-04-25T10:40:40;100427.44;;;9.27;62.24
75543;BME280;64129;53.508;10.476;2023-04-25T10:43:33;100428.06;;;9.40;61.29
75543;BME280;64129;53.508;10.476;2023-04-25T10:45:59;100418.50;;;9.31;59.31
75543;BME280;64129;53.508;10.476;2023-04-25T10:48:27;100421.31;;;9.96;59.40
75543;BME280;64129;53.508;10.476;2023-04-25T10:53:34;100411.84;;;10.52;58.44
75543;BME280;64129;53.508;10.476;2023-04-25T10:56:28;100408.16;;;11.70;58.52
75543;BME280;64129;53.508;10.476;2023-04-25T11:01:39;100418.03;;;10.82;55.27
75543;BME280;64129;53.508;10.476;2023-04-25T11:04:39;100420.66;;;10.84;53.74
75543;BME280;64129;53.508;10.476;2023-04-25T11:07:26;100426.28;;;11.03;54.26
75543;BME280;64129;53.508;10.476;2023-04-25T11:09:55;100418.44;;;11.82;52.59
75543;BME280;64129;53.508;10.476;2023-04-25T11:12:24;100420.44;;;12.27;48.01
75543;BME280;64129;53.508;10.476;2023-04-25T11:14:58;100413.03;;;12.35;49.33
75543;BME280;64129;53.508;10.476;2023-04-25T11:17:25;100404.00;;;12.14;45.80
75543;BME280;64129;53.508;10.476;2023-04-25T11:19:51;100418.66;;;12.01;48.41
75543;BME280;64129;53.508;10.476;2023-04-25T11:22:18;100418.69;;;11.73;46.89
75543;BME280;64129;53.508;10.476;2023-04-25T11:24:45;100418.63;;;12.99;50.27
75543;BME280;64129;53.508;10.476;2023-04-25T11:27:12;100415.09;;;13.22;48.06
75543;BME280;64129;53.508;10.476;2023-04-25T11:29:38;100414.47;;;12.20;49.57
75543;BME280;64129;53.508;10.476;2023-04-25T11:32:05;100418.19;;;11.90;48.18
75543;BME280;64129;53.508;10.476;2023-04-25T11:34:32;100411.53;;;11.75;51.80
75543;BME280;64129;53.508;10.476;2023-04-25T11:37:00;100434.41;;;11.26;50.41
75543;BME280;64129;53.508;10.476;2023-04-25T11:39:28;100437.19;;;10.93;51.06
75543;BME280;64129;53.508;10.476;2023-04-25T11:41:54;100443.84;;;10.48;51.49
75543;BME280;64129;53.508;10.476;2023-04-25T11:44:21;100462.84;;;11.24;49.59
75543;BME280;64129;53.508;10.476;2023-04-25T11:46:48;100443.69;;;11.13;49.39
75543;BME280;64129;53.508;10.476;2023-04-25T11:49:15;100453.09;;;10.64;50.21
75543;BME280;64129;53.508;10.476;2023-04-25T11:51:45;100477.91;;;10.30;51.04
75543;BME280;64129;53.508;10.476;2023-04-25T11:54:13;100471.81;;;9.56;57.31
75543;BME280;64129;53.508;10.476;2023-04-25T11:56:44;100472.78;;;9.53;58.66
75543;BME280;64129;53.508;10.476;2023-04-25T11:59:11;100472.16;;;9.42;57.80
75543;BME280;64129;53.508;10.476;2023-04-25T12:01:39;100479.97;;;9.48;58.34
75543;BME280;64129;53.508;10.476;2023-04-25T12:04:22;100477.25;;;9.51;56.29
75543;BME280;64129;53.508;10.476;2023-04-25T12:06:54;100468.88;;;9.68;56.73
75543;BME280;64129;53.508;10.476;2023-04-25T12:09:31;100473.38;;;9.64;56.08
75543;BME280;64129;53.508;10.476;2023-04-25T12:11:59;100477.66;;;9.72;56.21
75543;BME280;64129;53.508;10.476;2023-04-25T12:14:34;100479.88;;;9.51;55.12
75543;BME280;64129;53.508;10.476;2023-04-25T12:17:03;100490.63;;;9.45;54.91
75543;BME280;64129;53.508;10.476;2023-04-25T12:19:34;100489.53;;;9.91;55.58
75543;BME280;64129;53.508;10.476;2023-04-25T12:22:01;100493.19;;;9.50;55.14
75543;BME280;64129;53.508;10.476;2023-04-25T12:24:29;100495.50;;;9.63;54.86
75543;BME280;64129;53.508;10.476;2023-04-25T12:27:02;100503.34;;;9.68;53.51
75543;BME280;64129;53.508;10.476;2023-04-25T12:29:33;100493.28;;;10.52;51.87
75543;BME280;64129;53.508;10.476;2023-04-25T12:32:07;100495.69;;;10.92;51.66
75543;BME280;64129;53.508;10.476;2023-04-25T12:34:34;100498.72;;;11.09;48.95
75543;BME280;64129;53.508;10.476;2023-04-25T12:37:02;100494.13;;;11.72;50.58
75543;BME280;64129;53.508;10.476;2023-04-25T12:39:28;100484.19;;;12.56;50.25
75543;BME280;64129;53.508;10.476;2023-04-25T12:41:55;100480.94;;;12.46;47.85
75543;BME280;64129;53.508;10.476;2023-04-25T12:44:21;100474.25;;;12.85;48.43
75543;BME280;64129;53.508;10.476;2023-04-25T12:46:48;100477.81;;;12.35;47.89
75543;BME280;64129;53.508;10.476;2023-04-25T12:49:15;100476.56;;;12.70;48.36
75543;BME280;64129;53.508;10.476;2023-04-25T12:51:44;100474.94;;;11.90;48.98
75543;BME280;64129;53.508;10.476;2023-04-25T12:54:10;100485.16;;;11.74;48.26
75543;BME280;64129;53.508;10.476;2023-04-25T12:56:37;100483.56;;;12.48;47.12
75543;BME280;64129;53.508;10.476;2023-04-25T12:59:03;100485.91;;;11.51;47.02
75543;BME280;64129;53.508;10.476;2023-04-25T13:01:30;100493.03;;;11.77;49.02
75543;BME280;64129;53.508;10.476;2023-04-25T13:03:57;100488.59;;;12.57;43.33
75543;BME280;64129;53.508;10.476;2023-04-25T13:06:24;100499.25;;;12.80;41.22
75543;BME280;64129;53.508;10.476;2023-04-25T13:08:50;100503.59;;;12.85;38.73
75543;BME280;64129;53.508;10.476;2023-04-25T13:11:17;100492.69;;;13.14;38.47
75543;BME280;64129;53.508;10.476;2023-04-25T13:13:44;100496.13;;;13.18;40.74
75543;BME280;64129;53.508;10.476;2023-04-25T13:16:10;100494.84;;;12.56;42.42